Aérodrome :
LOGIN :

S'inscrire | Disclaimer

   EN    FR    IT 

 










Légende :    VFR   VFR Marginal   IFR   IFR Intensif   IFR Très Intensif
Visi : 
Plafond : 
>= 8 km
>= 3000ft
5 à 8 km
1000 à 3000 ft
1500m à 5 km
500 à 1000 ft
800 à 1500m
200 à 500 ft
< 800m
< 200 ft
Symboles :   Orages  Brouillard  Fortes neiges  Fortes précipitations  Vent > 20 kt
SIGMETs :   Divers  Orages  Givrage  Turbulence  Onde Orograph.  Cendres Volcan.







- Altitude de l'aérodrome : 20 ft


EBFN - Koksijde

DERNIER METAR :
  • 251355Z 32011KT 9999 SCT029 08/00 Q1013 BLU BLU

METARs EXPIRÉS :
  • 251325Z 33012KT 9999 SCT029 08/01 Q1013 BLU BLU
  • 251255Z 32013KT 9999 SCT025 09/01 Q1013 BLU BLU
  • 251225Z 33012KT 9999 SCT025 09/01 Q1013 BLU BLU
  • 251155Z 33012KT 9999 FEW022 SCT027 08/01 Q1013 BLU BLU
  • 251125Z 33012KT 9999 FEW020 SCT025 07/02 Q1013 BLU BLU

TAF TAF EBFN
Valide du 25 à 13h jusqu'au 25 à 22h UTC


251141Z 2513/2522 32015G25KT 9999 FEW020 SCT025
TEMPO 2513/2518 32015G30KT 5000 -SHRA BKN020TCU
Pas de NOTAMs connus pour ce terrain.



MET'MAP, la Météo Aéronautique d'un coup d'oeil ! - Copyright ORBIFLY Décembre 2007 - Disclaimer

ORBIFLY MET'MAP TEAM :

Programmation & Développement : Alexandra Zaïnal
Conception & Développement : Baudouin d'Aumeries
Co-Programmation & Développement : Marc-Olivier Méhu
Soutien technique & logistique : Manuel Goepfert

Contact : metmap@orbifly.com




SOURCES & CREDITS :

   NOAA